VCBI/CMB METAR and TAF weather

Enter ICAO airport designator
Station Type Date Time Source
VCBI METAR 2022/10/01 08:10 UTC NOAA

VCBI 010810Z 25014G24KT 9999 SCT016 30/25 Q1009 NOSIG


Station Type Date Time Source
VCBI Decoded METAR 2022/10/01 08:10 UTC NOAA

Katunayake, Sri Lanka (VCBI) 07-10N 079-53E 8M
Oct 01, 2022 - 04:10 AM EDT / 2022.10.01 0810 UTC
Wind: from the WSW (250 degrees) at 16 MPH (14 KT) gusting to 28 MPH (24 KT):0
Visibility: greater than 7 mile(s):0
Sky conditions: partly cloudy
Temperature: 86 F (30 C)
Heat index: 96.8 F (36.0 C):1
Dew Point: 77 F (25 C)
Relative Humidity: 74%
Pressure (altimeter): 29.80 in. Hg (1009 hPa)
ob: VCBI 010810Z 25014G24KT 9999 SCT016 30/25 Q1009 NOSIG
cycle: 8

Station Type Date Time Source
VCBI TAF 2022/10/01 06:06 UTC NOAA

TAF TAF VCBI 010500Z 0106/0212 26012G22KT 9999 SCT016 TX31/0107Z TN26/0200Z PROB30
TEMPO 0110/0118 7000 -SHRA FEW014 BKN016

Example: see airport list